CST,Max TemperatureF,Mean TemperatureF,Min TemperatureF,Max Dew PointF,MeanDew PointF,Min DewpointF,Max Humidity, Mean Humidity, Min Humidity, Max Sea Level PressureIn, Mean Sea Level PressureIn, Min Sea Level PressureIn, Max VisibilityMiles, Mean VisibilityMiles, Min VisibilityMiles, Max Wind SpeedMPH, Mean Wind SpeedMPH, Max Gust SpeedMPH,PrecipitationIn, CloudCover, Events, WindDirDegrees
2012-11-1,83,68,53,57,46,41,72,48,23,30.05,29.98,29.92,10,10,9,16,7,21,0.00,0,,188
2012-11-2,84,72,59,59,53,49,80,56,31,29.97,29.90,29.83,10,10,7,21,11,25,0.00,0,,194
2012-11-3,75,64,53,54,49,45,89,67,44,30.12,30.02,29.89,10,10,10,16,7,20,0.00,0,,348
2012-11-4,71,60,48,52,46,41,89,65,40,30.18,30.12,30.06,10,10,2,10,4,13,0.27,3,Rain-Thunderstorm,18
2012-11-5,75,63,50,50,43,36,93,59,25,30.13,30.08,30.02,10,10,10,17,6,23,0.00,0,,34
2012-11-6,80,61,42,44,40,36,83,52,21,30.16,30.10,30.05,10,10,9,13,3,16,0.00,0,,219
2012-11-7,79,62,45,45,42,40,71,50,28,30.16,30.07,29.97,10,10,10,17,9,28,0.00,0,,162
2012-11-8,84,73,61,55,52,46,64,51,37,29.98,29.92,29.85,10,10,10,29,15,36,0.00,0,,181
2012-11-9,81,72,63,59,56,53,84,63,42,29.92,29.87,29.82,10,10,10,24,16,33,0.00,0,,178
2012-11-10,81,72,63,59,56,53,84,63,42,29.86,29.77,29.68,10,10,10,33,21,43,0.00,0,,169
2012-11-11,69,55,41,61,37,10,76,45,14,30.28,29.94,29.67,10,10,10,19,14,28,0.01,4,Rain,295
2012-11-12,56,43,29,32,23,17,92,58,24,30.50,30.44,30.30,10,10,10,10,4,15,0.00,0,,73
2012-11-13,55,44,33,21,19,14,61,41,20,30.48,30.38,30.29,10,10,10,21,9,28,0.00,1,,148
2012-11-14,63,49,34,28,23,19,59,40,20,30.40,30.31,30.22,10,10,10,13,6,17,0.00,0,,172
2012-11-15,67,53,38,47,39,24,76,59,42,30.27,30.22,30.15,10,10,10,17,8,62,0.00,1,,160
2012-11-16,67,55,42,45,39,30,83,60,37,30.36,30.30,30.26,10,10,10,12,6,16,0.00,1,,137
2012-11-17,67,56,44,36,30,27,53,42,31,30.34,30.26,30.18,10,10,10,17,10,23,0.00,2,,153
2012-11-18,68,60,52,51,44,30,72,54,35,30.18,30.14,30.09,10,10,10,23,12,31,0.00,2,,170
2012-11-19,77,66,54,55,52,50,86,64,41,30.16,30.10,30.04,10,10,10,16,8,20,0.00,1,,184
2012-11-20,75,61,46,52,43,39,100,65,29,30.21,30.16,30.09,10,10,10,10,4,12,0.00,0,,237
2012-11-21,77,63,48,55,49,39,93,66,38,30.23,30.14,30.03,10,10,10,20,9,25,0.00,0,,165
2012-11-22,77,69,60,56,52,48,72,58,43,30.13,30.01,29.93,10,10,10,25,13,32,0.01,1,Rain,194
2012-11-23,64,51,38,43,27,20,67,45,22,30.45,30.36,30.11,10,10,10,24,12,35,0.00,1,,17
2012-11-24,63,46,28,32,25,15,78,47,16,30.43,30.24,30.00,10,10,9,18,8,24,0.00,0,,183
2012-11-25,77,64,50,48,40,34,56,43,29,29.98,29.87,29.78,10,10,10,22,14,30,0.00,0,,203
2012-11-26,65,54,43,51,39,26,86,57,28,30.33,30.04,29.79,10,10,10,24,16,29,0.00,0,,323
2012-11-27,55,44,32,31,27,21,70,54,38,30.48,30.37,30.30,10,10,10,17,8,21,0.00,0,,346
2012-11-28,71,55,38,43,37,30,76,56,35,30.35,30.25,30.18,10,10,10,18,11,22,0.00,0,,168
2012-11-29,71,59,47,51,47,41,80,64,47,30.17,30.08,30.01,10,10,10,23,12,28,0.00,0,,176
2012-11-30,76,65,54,54,52,48,93,68,43,30.10,30.01,29.95,10,9,7,22,13,26,0.00,2,,194